Hlavní strana
METAR-TAF:

METAR-TAF

Letiště :

Perm, Rusko

zeměpisná šířka: 58-00N, zeměpisná délka: 056-15E, výška: 170 m

Aktuální stav počasí

Zpráva byla vytvořena před 27 minutami, v 02:30 UTC
Severozápadní vítr 6 kt
Teplota -2°C
Vlhkost vzduchu 80%
Tlak 1012 hPa
Viditelnost 10 km a více
Žádná oblačnost pod 1500 m, nevyskytují se cumulonimby.

METAR: USPP 060230Z 31003MPS CAVOK M02/M05 Q1012 R21/090060 NOSIG RMK QFE748

Čas: 07:57 (02:57 UTC)

Předpověď počasí

Zpráva byla vytvořena před 58 minutami, v 01:59 UTC
Předpověď platná od 06 v 03 UTC do 07 v 03 UTC
Západoseverozápadní vítr 6 kt s nárazy do 16 kt
Viditelnost 10 km a více
Žádná oblačnost pod 1500 m, nevyskytují se cumulonimby.
Dočasný
od 06 v 03 UTC do 06 v 06 UTC
Oblačno až skoro zataženo ve výšce 1600 ft
Změna
od 06 v 06 UTC do 06 v 07 UTC
Severní vítr 8 kt s nárazy do 23 kt

TAF: USPP 060159Z 0603/0703 30003G08MPS CAVOK TEMPO 0603/0606 BKN016 BECMG 0606/0607 36004G12MPS

Stav a předpovědi počasí z více než 4 000 letišť (zprávy METAR a TAF).

Červené a žluté tečky na mapě představují dostupné meteorologické stanice.

Když kurzor umístíte na tečku, zobrazí se název stanice.

Pak kliknutím zobrazíte stav a předpověď počasí.

Chcete-li změnit mapu, kliknutím na zelené tlačítko se znaménkem +mapu přiblížíte, kliknutím na zelené tlačítko se znaménkem – mapu oddálíte a kliknutím na zelené šipky přejdete na sousední mapy.


METAR-TAF: